createdAt,value
2018-03-07T11:15:05.519Z,98943.95
2018-03-07T11:17:34.891Z,98952.18
2018-03-07T11:20:03.504Z,98950.27
2018-03-07T11:22:32.345Z,98951.58
2018-03-07T11:25:00.781Z,98953.05
2018-03-07T11:27:29.176Z,98954.77
2018-03-07T11:29:58.423Z,98951.89
2018-03-07T11:32:26.896Z,98949.39
2018-03-07T11:34:55.834Z,98949.94
2018-03-07T11:37:24.239Z,98945.70
2018-03-07T11:39:53.425Z,98946.61
2018-03-07T11:42:22.600Z,98950.75
2018-03-07T11:44:51.006Z,98946.61
2018-03-07T11:47:20.247Z,98953.62
2018-03-07T11:49:48.663Z,98954.61
2018-03-07T11:52:17.080Z,98950.29
2018-03-07T11:54:46.210Z,98955.55
2018-03-07T11:57:14.633Z,98949.26
2018-03-07T11:59:43.045Z,98954.92
2018-03-07T12:02:11.452Z,98949.14
2018-03-07T12:04:40.713Z,98949.20
2018-03-07T12:07:09.848Z,98945.39
2018-03-07T12:09:38.293Z,98948.86
2018-03-07T12:12:07.439Z,98945.56
2018-03-07T12:14:35.889Z,98945.83
2018-03-07T12:17:05.036Z,98943.97
2018-03-07T12:19:33.444Z,98943.50
2018-03-07T12:22:01.808Z,98934.51
2018-03-07T12:24:30.215Z,98936.11
2018-03-07T12:26:59.386Z,98934.63
2018-03-07T12:29:27.765Z,98939.92
2018-03-07T12:31:56.206Z,98934.63
2018-03-07T12:34:24.629Z,98935.10
2018-03-07T12:36:53.004Z,98941.73
2018-03-07T12:39:21.464Z,98938.06
2018-03-07T12:41:49.902Z,98939.41
2018-03-07T12:44:18.255Z,98943.38
2018-03-07T12:46:46.825Z,98940.84
2018-03-07T12:49:15.237Z,98937.45
2018-03-07T12:51:43.654Z,98932.34
2018-03-07T12:54:12.087Z,98936.64
2018-03-07T12:56:40.503Z,98932.02
2018-03-07T12:59:09.671Z,98942.52
2018-03-07T13:01:38.099Z,98937.44
2018-03-07T13:04:06.656Z,98937.39
2018-03-07T13:06:35.955Z,98936.57
2018-03-07T13:09:04.747Z,98934.87
2018-03-07T13:11:33.824Z,98936.27
2018-03-07T13:14:02.203Z,98939.91
2018-03-07T13:16:30.816Z,98941.91
2018-03-07T13:18:59.184Z,98940.81
2018-03-07T13:21:27.574Z,98940.70
2018-03-07T13:23:56.094Z,98938.02
2018-03-07T13:26:24.552Z,98935.23
2018-03-07T13:28:53.737Z,98934.61
2018-03-07T13:31:22.114Z,98937.30
2018-03-07T13:33:50.482Z,98936.06
2018-03-07T13:36:18.915Z,98934.11
2018-03-07T13:38:47.317Z,98936.14
2018-03-07T13:41:15.821Z,98939.44
2018-03-07T13:43:44.312Z,98936.77
2018-03-07T13:46:12.748Z,98944.22
2018-03-07T13:48:41.127Z,98940.00
2018-03-07T13:51:09.682Z,98934.98
2018-03-07T13:53:38.040Z,98942.44
2018-03-07T13:56:06.500Z,98943.32
2018-03-07T13:58:34.914Z,98940.81
2018-03-07T14:01:03.795Z,98949.77
2018-03-07T14:03:32.183Z,98948.08
2018-03-07T14:06:01.554Z,98948.82
2018-03-07T14:08:30.069Z,98944.18
2018-03-07T14:10:58.442Z,98948.47
2018-03-07T14:13:27.082Z,98941.14
2018-03-07T14:15:56.440Z,98948.94
2018-03-07T14:18:24.889Z,98947.55
2018-03-07T14:20:53.276Z,98942.60
2018-03-07T14:23:21.659Z,98943.67
2018-03-07T14:25:50.022Z,98945.36
2018-03-07T14:28:18.586Z,98941.78
2018-03-07T14:30:47.949Z,98943.25
2018-03-07T14:33:16.339Z,98945.45
2018-03-07T14:35:44.751Z,98946.20
2018-03-07T14:38:13.165Z,98945.80
2018-03-07T14:40:41.565Z,98945.78
2018-03-07T14:43:09.955Z,98946.48
2018-03-07T14:45:38.347Z,98952.30
2018-03-07T14:48:06.752Z,98948.50
2018-03-07T14:50:36.042Z,98955.03
2018-03-07T14:53:05.206Z,98955.44
2018-03-07T14:55:33.588Z,98961.20
2018-03-07T14:58:02.072Z,98958.85
2018-03-07T15:00:30.500Z,98959.72
2018-03-07T15:02:59.619Z,98949.61
2018-03-07T15:05:28.002Z,98955.50
2018-03-07T15:07:56.591Z,98957.26
2018-03-07T15:10:24.983Z,98959.27
2018-03-07T15:12:53.367Z,98956.51
2018-03-07T15:15:21.876Z,98954.50
2018-03-07T15:17:50.352Z,98958.70
2018-03-07T15:20:18.779Z,98957.02
2018-03-07T15:22:48.008Z,98959.63
2018-03-07T15:25:16.447Z,98960.22
2018-03-07T15:27:44.859Z,98965.27
2018-03-07T15:30:13.249Z,98964.95
2018-03-07T15:32:41.671Z,98960.50
2018-03-07T15:35:10.207Z,98963.65
2018-03-07T15:37:39.379Z,98963.69
2018-03-07T15:40:08.527Z,98965.97
2018-03-07T15:42:36.936Z,98974.20
2018-03-07T15:45:05.841Z,98974.30
2018-03-07T15:47:35.045Z,98986.11
2018-03-07T15:50:04.549Z,98984.52
2018-03-07T15:52:33.879Z,98982.52
2018-03-07T15:55:02.251Z,99001.09
2018-03-07T15:57:30.649Z,98996.84
2018-03-07T15:59:59.039Z,98999.11
2018-03-07T16:02:27.427Z,99006.91
2018-03-07T16:04:56.864Z,99012.11
2018-03-07T16:07:25.292Z,99005.67
2018-03-07T16:09:53.702Z,99009.53
2018-03-07T16:12:22.272Z,99013.42
2018-03-07T16:14:50.732Z,99016.89
2018-03-07T16:17:19.114Z,99004.42
2018-03-07T16:19:47.524Z,99017.33
2018-03-07T16:22:15.912Z,99020.38
2018-03-07T16:24:44.300Z,99017.77
2018-03-07T16:27:12.703Z,99022.11
2018-03-07T16:29:41.863Z,99029.84
2018-03-07T16:32:10.596Z,99027.30
2018-03-07T16:34:39.842Z,99027.33
2018-03-07T16:37:08.268Z,99031.22
2018-03-07T16:39:36.640Z,99028.20
2018-03-07T16:42:05.020Z,99036.78
2018-03-07T16:44:33.432Z,99032.50
2018-03-07T16:47:02.781Z,99038.52
2018-03-07T16:49:31.211Z,99041.16
2018-03-07T16:52:00.351Z,99041.13
2018-03-07T16:54:28.744Z,99046.33
2018-03-07T16:56:57.118Z,99045.89
2018-03-07T16:59:27.859Z,99047.19
2018-03-07T17:01:56.259Z,99047.17
2018-03-07T17:04:24.653Z,99051.50
2018-03-07T17:06:53.064Z,99050.64
2018-03-07T17:09:22.224Z,99056.69
2018-03-07T17:11:50.784Z,99059.72
2018-03-07T17:14:19.282Z,99061.86
2018-03-07T17:16:47.838Z,99059.71
2018-03-07T17:19:16.339Z,99067.48
2018-03-07T17:21:44.756Z,99073.54
2018-03-07T17:24:13.180Z,99076.98
2018-03-07T17:26:41.607Z,99077.41
2018-03-07T17:29:09.988Z,99085.18
2018-03-07T17:31:38.347Z,99082.59
2018-03-07T17:34:06.733Z,99091.20
2018-03-07T17:36:35.317Z,99101.98
2018-03-07T17:39:03.699Z,99103.27
2018-03-07T17:41:32.175Z,99106.72
2018-03-07T17:44:00.573Z,99125.66
2018-03-07T17:46:28.961Z,99132.98
2018-03-07T17:48:57.441Z,99136.39
2018-03-07T17:51:26.773Z,99140.21
2018-03-07T17:53:56.147Z,99144.91
2018-03-07T17:56:24.572Z,99151.30
2018-03-07T17:58:53.793Z,99153.41
2018-03-07T18:01:22.234Z,99156.77
2018-03-07T18:03:50.780Z,99157.17
2018-03-07T18:06:19.246Z,99165.31
2018-03-07T18:08:47.663Z,99162.69
2018-03-07T18:11:16.083Z,99167.47
2018-03-07T18:13:45.257Z,99163.57
2018-03-07T18:16:13.617Z,99168.23
2018-03-07T18:18:42.014Z,99168.68
2018-03-07T18:21:10.563Z,99170.00
2018-03-07T18:23:52.325Z,99175.19
2018-03-07T18:26:22.782Z,99176.88
2018-03-07T18:28:51.184Z,99176.97
2018-03-07T18:31:19.809Z,99185.88
2018-03-07T18:33:48.286Z,99176.90
2018-03-07T18:36:16.698Z,99189.36
2018-03-07T18:38:45.071Z,99187.24
2018-03-07T18:41:13.524Z,99199.23
2018-03-07T18:43:41.914Z,99200.06
2018-03-07T18:46:10.394Z,99200.87
2018-03-07T18:48:39.082Z,99202.16
2018-03-07T18:51:07.454Z,99206.03
2018-03-07T18:53:35.903Z,99208.15
2018-03-07T18:56:05.121Z,99208.95
2018-03-07T18:58:34.273Z,99208.06
2018-03-07T19:01:02.672Z,99211.84
2018-03-07T19:03:31.081Z,99213.16
2018-03-07T19:06:00.237Z,99212.21
2018-03-07T19:08:28.740Z,99205.27
2018-03-07T19:10:58.835Z,99211.62
2018-03-07T19:13:27.260Z,99212.94
2018-03-07T19:15:56.590Z,99206.83
2018-03-07T19:18:24.972Z,99211.52
2018-03-07T19:20:53.536Z,99209.83
2018-03-07T19:23:22.716Z,99216.34
2018-03-07T19:25:51.297Z,99224.11
2018-03-07T19:28:20.773Z,99222.81
2018-03-07T19:30:49.383Z,99216.67
2018-03-07T19:33:18.469Z,99224.11
2018-03-07T19:35:47.342Z,99225.28
2018-03-07T19:38:15.751Z,99230.44
2018-03-07T19:40:44.543Z,99225.64
2018-03-07T19:43:13.269Z,99232.19
2018-03-07T19:45:41.676Z,99230.05
2018-03-07T19:48:10.835Z,99230.05
2018-03-07T19:50:39.281Z,99237.45
2018-03-07T19:53:07.806Z,99236.06
2018-03-07T19:55:36.245Z,99241.14
2018-03-07T19:58:04.639Z,99241.21
2018-03-07T20:00:33.070Z,99246.30
2018-03-07T20:03:01.505Z,99245.50
2018-03-07T20:05:29.934Z,99241.75
2018-03-07T20:07:58.495Z,99246.91
2018-03-07T20:10:26.876Z,99252.05
2018-03-07T20:12:55.395Z,99248.69
2018-03-07T20:15:23.810Z,99254.16
2018-03-07T20:17:52.981Z,99252.91
2018-03-07T20:20:22.166Z,99258.93
2018-03-07T20:22:51.313Z,99269.20
2018-03-07T20:25:19.793Z,99272.67
2018-03-07T20:27:48.433Z,99272.24
2018-03-07T20:30:17.690Z,99276.61
2018-03-07T20:32:46.119Z,99283.84
2018-03-07T20:35:15.327Z,99283.98
2018-03-07T20:37:44.724Z,99295.19
2018-03-07T20:40:14.176Z,99308.08
2018-03-07T20:42:42.601Z,99302.53
2018-03-07T20:45:11.116Z,99306.83
2018-03-07T20:47:39.633Z,99305.57
2018-03-07T20:50:08.156Z,99312.84
2018-03-07T20:52:37.390Z,99319.25
2018-03-07T20:55:06.710Z,99326.16
2018-03-07T20:57:35.116Z,99328.23
2018-03-07T21:00:03.574Z,99336.78
2018-03-07T21:02:32.023Z,99336.70
2018-03-07T21:05:01.244Z,99347.79
2018-03-07T21:07:29.859Z,99345.98
2018-03-07T21:09:58.273Z,99350.59
2018-03-07T21:12:26.715Z,99358.31
2018-03-07T21:14:55.098Z,99356.85
2018-03-07T21:17:23.483Z,99366.67
2018-03-07T21:19:51.907Z,99368.39
2018-03-07T21:22:21.060Z,99385.45
2018-03-07T21:24:49.449Z,99394.33
2018-03-07T21:27:17.905Z,99400.44
2018-03-07T21:29:47.201Z,99396.82
2018-03-07T21:32:15.699Z,99407.92
2018-03-07T21:34:44.062Z,99404.48
2018-03-07T21:37:12.485Z,99406.16
2018-03-07T21:39:40.854Z,99412.63
2018-03-07T21:42:09.307Z,99413.44
2018-03-07T21:44:37.785Z,99409.57
2018-03-07T21:47:06.336Z,99417.35
2018-03-07T21:49:34.743Z,99416.38
2018-03-07T21:52:03.925Z,99424.84
2018-03-07T21:54:33.169Z,99421.21
2018-03-07T21:57:01.603Z,99421.64
2018-03-07T21:59:30.811Z,99423.67
2018-03-07T22:01:59.228Z,99429.79
2018-03-07T22:04:27.717Z,99434.14
2018-03-07T22:06:56.106Z,99437.20
2018-03-07T22:09:24.554Z,99440.09
2018-03-07T22:11:53.080Z,99438.19
2018-03-07T22:14:21.487Z,99444.24
2018-03-07T22:16:49.961Z,99449.08
2018-03-07T22:19:18.337Z,99448.22
2018-03-07T22:21:46.733Z,99457.22
2018-03-07T22:24:15.169Z,99453.36
2018-03-07T22:26:43.663Z,99456.75
2018-03-07T22:29:12.097Z,99456.75
2018-03-07T22:31:41.331Z,99468.87
2018-03-07T22:34:09.738Z,99460.34
2018-03-07T22:36:38.292Z,99467.53
2018-03-07T22:39:06.714Z,99467.53
2018-03-07T22:41:35.139Z,99471.61
2018-03-07T22:44:04.401Z,99476.71
2018-03-07T22:46:32.769Z,99479.83
2018-03-07T22:49:01.166Z,99472.00
2018-03-07T22:51:29.588Z,99478.98
2018-03-07T22:53:58.777Z,99478.98
2018-03-07T22:56:27.952Z,99484.13
2018-03-07T22:58:56.560Z,99487.17
2018-03-07T23:01:25.704Z,99491.53
2018-03-07T23:03:54.095Z,99495.82
2018-03-07T23:06:22.520Z,99499.63
2018-03-07T23:08:50.988Z,99504.84
2018-03-07T23:11:19.375Z,99504.84
2018-03-07T23:13:48.520Z,99506.11
2018-03-07T23:16:17.025Z,99510.42
2018-03-07T23:18:45.709Z,99510.41
2018-03-07T23:21:14.158Z,99513.95
2018-03-07T23:23:42.631Z,99517.81
2018-03-07T23:26:11.763Z,99523.45
2018-03-07T23:28:40.472Z,99518.36
2018-03-07T23:31:09.577Z,99521.84
2018-03-07T23:33:38.592Z,99532.64
2018-03-07T23:36:07.082Z,99529.96
2018-03-07T23:38:36.236Z,99532.16
2018-03-07T23:41:04.903Z,99541.59
2018-03-07T23:43:33.303Z,99537.69
2018-03-07T23:46:01.704Z,99540.67
2018-03-07T23:48:30.875Z,99541.55
2018-03-07T23:50:59.242Z,99552.66
2018-03-07T23:53:27.709Z,99552.75
2018-03-07T23:55:56.855Z,99556.95
2018-03-07T23:58:25.275Z,99553.33
